Toussus-le-Noble Airport

Airport
ICAO code: 
LFPN
IATA Code: 
TNF
Summary
ICAO Region: 
EUR
Territory: 
Location: 
, Ile-de-France
Serving: 
Toussous-le-noble
Elevation: 
538 ft
Coordinates: 
Aerial View: 
48° 45' 6.919" N, 2° 6' 22.28" E
Metar
Observation
LFPN 020230Z AUTO 33010KT 9999 FEW009 SCT013 BKN023 05/04 Q1005
Station
Toussus Le Noble
Date/Time
2021-12-02 02:30:00
Wind direction
330°
Wind speed
10 kts
Lowest cloud amount
few clouds
Temperature
5°C
Dew point
4°C
Humidity
93%
QNH
1005 hPa
Weather condition
n/a

Runways

Designator Length Width Surface Rops
07R/25L 1050 30 ASP No/No
07L/25R 1100 30 ASP No/No
Airport map: 
Aerial View: 

SKYbrary Partners:

Safety knowledge contributed by: